createdAt,value
2019-05-07T00:02:32.161Z,98818.00
2019-05-07T00:05:13.684Z,98827.00
2019-05-07T00:07:54.844Z,98820.00
2019-05-07T00:10:35.692Z,98826.00
2019-05-07T00:13:17.083Z,98764.00
2019-05-07T00:15:57.809Z,98746.00
2019-05-07T00:18:38.442Z,98806.00
2019-05-07T00:21:19.323Z,98807.00
2019-05-07T00:24:02.135Z,98806.00
2019-05-07T00:26:43.217Z,98809.00
2019-05-07T00:29:24.389Z,98803.00
2019-05-07T00:32:05.214Z,98750.00
2019-05-07T00:34:50.592Z,98842.00
2019-05-07T00:43:42.856Z,98796.00
2019-05-07T00:46:26.844Z,98822.00
2019-05-07T00:49:07.454Z,98744.00
2019-05-07T00:51:48.849Z,98779.00
2019-05-07T00:54:29.576Z,98780.00
2019-05-07T00:57:12.422Z,98787.00
2019-05-07T00:59:52.983Z,98739.00
2019-05-07T01:02:33.769Z,98786.00
2019-05-07T01:05:15.509Z,98781.00
2019-05-07T01:07:57.042Z,98776.00
2019-05-07T01:10:37.811Z,98784.00
2019-05-07T01:13:19.387Z,98793.00
2019-05-07T01:16:02.392Z,98782.00
2019-05-07T01:18:43.302Z,98715.00
2019-05-07T01:21:24.145Z,98782.00
2019-05-07T01:24:05.553Z,98774.00
2019-05-07T01:26:47.098Z,98778.00
2019-05-07T01:29:27.878Z,98774.00
2019-05-07T01:32:27.731Z,98716.00
2019-05-07T01:35:14.968Z,98722.00
2019-05-07T01:37:56.372Z,98769.00
2019-05-07T01:40:37.093Z,98768.00
2019-05-07T01:43:18.445Z,98791.00
2019-05-07T01:45:59.226Z,98751.00
2019-05-07T01:48:42.759Z,98773.00
2019-05-07T01:51:23.517Z,98769.00
2019-05-07T01:54:04.203Z,98801.00
2019-05-07T01:56:45.418Z,98733.00
2019-05-07T01:59:26.097Z,98762.00
2019-05-07T02:08:05.004Z,98767.00
2019-05-07T02:13:49.899Z,98768.00
2019-05-07T02:16:32.508Z,98774.00
2019-05-07T02:19:13.266Z,98769.00
2019-05-07T02:21:54.136Z,98803.00
2019-05-07T02:24:34.845Z,98776.00
2019-05-07T02:27:16.193Z,98701.00
2019-05-07T02:29:57.158Z,98778.00
2019-05-07T02:32:38.467Z,98764.00
2019-05-07T02:35:19.738Z,98768.00
2019-05-07T02:38:23.229Z,98766.00
2019-05-07T02:44:06.971Z,98770.00
2019-05-07T02:53:04.296Z,98796.00
2019-05-07T02:55:46.978Z,98769.00
2019-05-07T02:58:27.706Z,98717.00
2019-05-07T03:01:08.955Z,98775.00
2019-05-07T03:03:52.843Z,98778.00
2019-05-07T03:06:34.230Z,98775.00
2019-05-07T03:09:15.525Z,98768.00
2019-05-07T03:11:56.267Z,98784.00
2019-05-07T03:14:37.851Z,98759.00
2019-05-07T03:17:18.558Z,98760.00
2019-05-07T03:20:03.184Z,98777.00
2019-05-07T03:22:43.878Z,98760.00
2019-05-07T03:25:29.866Z,98766.00
2019-05-07T03:28:13.593Z,98793.00
2019-05-07T03:34:07.231Z,98764.00
2019-05-07T03:36:55.818Z,98759.00
2019-05-07T03:39:33.842Z,98781.00
2019-05-07T03:42:15.194Z,98757.00
2019-05-07T03:45:15.951Z,98765.00
2019-05-07T03:48:15.834Z,98788.00
2019-05-07T03:50:57.509Z,98696.00
2019-05-07T03:53:39.082Z,98693.00
2019-05-07T03:56:19.788Z,98793.00
2019-05-07T03:59:03.623Z,98762.00
2019-05-07T04:01:43.918Z,98750.00
2019-05-07T04:04:25.158Z,98762.00
2019-05-07T04:07:06.052Z,98761.00
2019-05-07T04:09:47.657Z,98828.00
2019-05-07T04:12:29.305Z,98763.00
2019-05-07T04:15:13.837Z,98762.00
2019-05-07T04:17:53.683Z,98731.00
2019-05-07T04:20:34.590Z,98752.00
2019-05-07T04:23:16.133Z,98751.00
2019-05-07T04:31:53.266Z,98768.00
2019-05-07T04:34:53.783Z,98762.00
2019-05-07T04:37:34.376Z,98808.00
2019-05-07T04:40:15.129Z,98816.00
2019-05-07T04:42:55.830Z,98814.00
2019-05-07T04:45:36.477Z,98853.00
2019-05-07T04:48:17.268Z,98795.00
2019-05-07T04:51:03.365Z,98775.00
2019-05-07T04:53:43.587Z,98714.00
2019-05-07T04:56:24.844Z,98777.00
2019-05-07T04:59:05.810Z,98783.00
2019-05-07T05:01:53.359Z,98779.00
2019-05-07T05:04:35.779Z,98754.00
2019-05-07T05:07:16.632Z,98782.00
2019-05-07T05:09:57.650Z,98782.00
2019-05-07T05:12:39.238Z,98824.00
2019-05-07T05:15:22.191Z,98780.00
2019-05-07T05:18:03.703Z,98779.00
2019-05-07T05:26:47.791Z,98718.00
2019-05-07T05:29:29.097Z,98783.00
2019-05-07T05:32:11.893Z,98787.00
2019-05-07T05:34:52.389Z,98791.00
2019-05-07T05:37:33.468Z,98788.00
2019-05-07T05:40:14.510Z,98792.00
2019-05-07T05:43:01.920Z,98792.00
2019-05-07T05:45:44.590Z,98792.00
2019-05-07T05:48:25.290Z,98773.00
2019-05-07T05:51:27.807Z,98797.00
2019-05-07T05:54:33.690Z,98795.00
2019-05-07T06:00:48.346Z,98856.00
2019-05-07T06:03:52.081Z,98797.00
2019-05-07T06:07:06.998Z,98834.00
2019-05-07T06:13:06.796Z,98795.00
2019-05-07T06:16:13.285Z,98802.00
2019-05-07T06:28:01.801Z,98826.00
2019-05-07T06:30:42.459Z,98802.00
2019-05-07T06:33:23.299Z,98827.00
2019-05-07T06:36:04.927Z,98825.00
2019-05-07T06:41:52.590Z,98851.00
2019-05-07T06:44:42.720Z,98794.00
2019-05-07T06:47:31.927Z,98807.00
2019-05-07T06:50:22.097Z,98796.00
2019-05-07T06:53:11.909Z,98793.00
2019-05-07T06:56:02.840Z,98802.00
2019-05-07T06:59:10.273Z,98804.00
2019-05-07T07:02:17.634Z,98830.00
2019-05-07T07:05:25.905Z,98802.00
2019-05-07T07:08:34.024Z,98799.00
2019-05-07T07:23:18.127Z,98772.00
2019-05-07T07:26:22.007Z,98795.00
2019-05-07T07:28:49.820Z,98773.00
2019-05-07T07:34:48.707Z,98814.00
2019-05-07T07:37:34.627Z,98769.00
2019-05-07T07:43:09.291Z,98782.00
2019-05-07T07:45:50.004Z,98782.00
2019-05-07T07:48:32.049Z,98791.00
2019-05-07T07:51:13.830Z,98780.00
2019-05-07T07:53:55.874Z,98820.00
2019-05-07T08:00:07.723Z,98775.00
2019-05-07T08:02:53.941Z,98773.00
2019-05-07T08:05:34.800Z,98797.00
2019-05-07T08:08:16.264Z,98775.00
2019-05-07T08:10:56.992Z,98763.00
2019-05-07T08:13:37.686Z,98777.00
2019-05-07T08:16:19.277Z,98759.00
2019-05-07T08:19:02.801Z,98758.00
2019-05-07T08:21:43.034Z,98762.00
2019-05-07T08:24:24.468Z,98650.00
2019-05-07T08:27:05.441Z,98759.00
2019-05-07T08:29:46.721Z,98745.00
2019-05-07T08:35:58.252Z,98749.00
2019-05-07T08:38:58.551Z,98732.00
2019-05-07T08:41:39.545Z,98733.00
2019-05-07T08:44:23.721Z,98745.00
2019-05-07T08:47:23.642Z,98748.00
2019-05-07T08:50:05.189Z,98734.00
2019-05-07T08:52:46.113Z,98727.00
2019-05-07T08:55:26.816Z,98755.00
2019-05-07T08:58:07.589Z,98726.00
2019-05-07T09:00:49.240Z,98725.00
2019-05-07T09:03:49.561Z,98660.00
2019-05-07T09:06:36.361Z,98738.00
2019-05-07T09:09:17.282Z,98718.00
2019-05-07T09:11:57.992Z,98715.00
2019-05-07T09:14:39.157Z,98716.00
2019-05-07T09:17:22.755Z,98710.00
2019-05-07T09:20:03.259Z,98740.00
2019-05-07T09:22:44.702Z,98702.00
2019-05-07T09:25:26.202Z,98742.00
2019-05-07T09:28:07.014Z,98703.00
2019-05-07T09:34:03.034Z,98701.00
2019-05-07T09:39:51.848Z,98657.00
2019-05-07T09:42:33.465Z,98689.00
2019-05-07T09:45:14.639Z,98698.00
2019-05-07T09:47:56.220Z,98684.00
2019-05-07T09:50:37.565Z,98688.00
2019-05-07T09:53:18.691Z,98644.00
2019-05-07T09:56:01.997Z,98693.00
2019-05-07T09:58:42.771Z,98711.00
2019-05-07T10:01:24.273Z,98681.00
2019-05-07T10:04:05.718Z,98680.00
2019-05-07T10:06:47.136Z,98684.00
2019-05-07T10:09:28.069Z,98672.00
2019-05-07T10:12:32.951Z,98678.00
2019-05-07T10:15:14.586Z,98672.00
2019-05-07T10:18:01.862Z,98673.00
2019-05-07T10:20:43.848Z,98681.00
2019-05-07T10:23:25.380Z,98673.00
2019-05-07T10:26:06.014Z,98582.00
2019-05-07T10:28:47.746Z,98669.00
2019-05-07T10:31:29.049Z,98705.00
2019-05-07T10:34:12.125Z,98591.00
2019-05-07T10:36:52.510Z,98655.00
2019-05-07T10:39:33.291Z,98640.00
2019-05-07T10:42:14.722Z,98707.00
2019-05-07T10:48:09.290Z,98675.00
2019-05-07T10:50:52.266Z,98690.00
2019-05-07T10:53:33.461Z,98664.00
2019-05-07T10:56:14.345Z,98687.00
2019-05-07T10:58:56.061Z,98670.00
2019-05-07T11:04:45.696Z,98661.00
2019-05-07T11:07:24.825Z,98666.00
2019-05-07T11:10:06.467Z,98659.00
2019-05-07T11:12:47.951Z,98631.00
2019-05-07T11:15:29.659Z,98684.00
2019-05-07T11:18:15.569Z,98644.00
2019-05-07T11:20:56.860Z,98586.00
2019-05-07T11:23:38.353Z,98649.00
2019-05-07T11:26:19.778Z,98638.00
2019-05-07T11:29:02.430Z,98675.00
2019-05-07T11:31:44.028Z,98671.00
2019-05-07T11:34:24.869Z,98608.00
2019-05-07T11:37:06.304Z,98658.00
2019-05-07T11:39:47.792Z,98623.00
2019-05-07T11:42:47.418Z,98614.00
2019-05-07T11:45:34.523Z,98622.00
2019-05-07T11:48:15.825Z,98623.00
2019-05-07T11:51:15.825Z,98531.00
2019-05-07T11:54:16.263Z,98622.00
2019-05-07T11:56:57.340Z,98617.00
2019-05-07T11:59:38.054Z,98612.00
2019-05-07T12:02:19.028Z,98614.00
2019-05-07T12:05:01.836Z,98615.00
2019-05-07T12:07:42.416Z,98641.00
2019-05-07T12:10:23.316Z,98573.00
2019-05-07T12:13:04.516Z,98578.00
2019-05-07T12:15:45.302Z,98606.00
2019-05-07T12:18:26.167Z,98643.00
2019-05-07T12:21:18.247Z,98596.00
2019-05-07T12:23:52.394Z,98596.00
2019-05-07T12:26:34.552Z,98603.00
2019-05-07T12:29:15.514Z,98583.00
2019-05-07T12:32:15.306Z,98581.00
2019-05-07T12:35:02.291Z,98504.00
2019-05-07T12:37:45.836Z,98506.00
2019-05-07T12:40:25.251Z,98580.00
2019-05-07T12:43:07.046Z,98601.00
2019-05-07T12:45:48.272Z,98564.00
2019-05-07T12:48:29.912Z,98571.00
2019-05-07T12:51:12.592Z,98590.00
2019-05-07T12:54:15.493Z,98569.00
2019-05-07T12:56:57.017Z,98559.00
2019-05-07T12:59:38.460Z,98603.00
2019-05-07T13:05:25.765Z,98558.00
2019-05-07T13:08:06.534Z,98561.00
2019-05-07T13:10:48.131Z,98560.00
2019-05-07T13:13:28.786Z,98555.00
2019-05-07T13:16:09.536Z,98574.00
2019-05-07T13:18:52.576Z,98556.00
2019-05-07T13:21:46.476Z,98594.00
2019-05-07T13:24:15.920Z,98548.00
2019-05-07T13:26:56.917Z,98553.00
2019-05-07T13:29:38.370Z,98553.00
2019-05-07T13:32:19.194Z,98550.00
2019-05-07T13:35:02.524Z,98544.00
2019-05-07T13:37:48.574Z,98535.00
2019-05-07T13:40:48.259Z,98565.00
2019-05-07T13:43:34.112Z,98534.00
2019-05-07T13:46:15.512Z,98478.00
2019-05-07T13:48:56.746Z,98556.00
2019-05-07T13:51:38.423Z,98524.00
2019-05-07T13:54:21.696Z,98524.00
2019-05-07T13:57:02.411Z,98528.00
2019-05-07T13:59:43.755Z,98510.00
2019-05-07T14:02:27.086Z,98516.00
2019-05-07T14:05:08.606Z,98557.00
2019-05-07T14:07:49.651Z,98415.00
2019-05-07T14:10:33.550Z,98510.00
2019-05-07T14:13:17.284Z,98525.00
2019-05-07T14:16:14.437Z,98490.00
2019-05-07T14:18:55.129Z,98489.00
2019-05-07T14:21:36.702Z,98483.00
2019-05-07T14:24:17.363Z,98485.00
2019-05-07T14:26:58.223Z,98490.00
2019-05-07T14:29:39.805Z,98414.00
2019-05-07T14:32:42.681Z,98444.00
2019-05-07T14:35:43.082Z,98524.00
2019-05-07T14:38:32.075Z,98485.00
2019-05-07T14:41:13.058Z,98510.00
2019-05-07T14:47:02.925Z,98476.00
2019-05-07T14:49:44.487Z,98471.00
2019-05-07T14:52:32.145Z,98518.00
2019-05-07T14:55:09.058Z,98493.00
2019-05-07T14:57:49.796Z,98506.00
2019-05-07T15:00:30.586Z,98485.00
2019-05-07T15:03:12.482Z,98502.00
2019-05-07T15:05:54.080Z,98491.00
2019-05-07T15:08:35.571Z,98492.00
2019-05-07T15:11:16.343Z,98465.00
2019-05-07T15:13:57.757Z,98476.00
2019-05-07T15:16:38.640Z,98466.00
2019-05-07T15:19:21.677Z,98464.00
2019-05-07T15:22:24.698Z,98501.00
2019-05-07T15:25:05.322Z,98401.00
2019-05-07T15:27:48.242Z,98458.00
2019-05-07T15:30:35.491Z,98462.00
2019-05-07T15:33:16.880Z,98469.00
2019-05-07T15:35:57.555Z,98482.00
2019-05-07T15:38:38.153Z,98504.00
2019-05-07T15:41:19.653Z,98474.00
2019-05-07T15:44:02.710Z,98467.00
2019-05-07T15:46:43.860Z,98465.00
2019-05-07T15:49:24.840Z,98386.00
2019-05-07T15:52:12.549Z,98388.00
2019-05-07T15:54:53.754Z,98454.00
2019-05-07T15:57:35.403Z,98453.00
2019-05-07T16:00:18.660Z,98382.00
2019-05-07T16:06:03.864Z,98448.00
2019-05-07T16:08:51.025Z,98446.00
2019-05-07T16:11:32.568Z,98463.00
2019-05-07T16:14:19.559Z,98405.00
2019-05-07T16:20:07.210Z,98429.00
2019-05-07T16:22:52.553Z,98332.00
2019-05-07T16:28:16.985Z,98420.00
2019-05-07T16:30:58.448Z,98420.00
2019-05-07T16:33:39.378Z,98411.00
2019-05-07T16:39:04.480Z,98429.00
2019-05-07T16:41:45.446Z,98341.00
2019-05-07T16:44:26.119Z,98448.00
2019-05-07T16:47:06.746Z,98384.00
2019-05-07T16:52:36.935Z,98407.00
2019-05-07T16:55:17.818Z,98343.00
2019-05-07T16:58:23.669Z,98406.00
2019-05-07T17:01:07.134Z,98441.00
2019-05-07T17:06:42.700Z,98401.00
2019-05-07T17:09:27.085Z,98374.00
2019-05-07T17:12:09.739Z,98409.00
2019-05-07T17:14:51.793Z,98442.00
2019-05-07T17:17:33.076Z,98352.00
2019-05-07T17:20:13.744Z,98409.00
2019-05-07T17:25:43.388Z,98399.00
2019-05-07T17:28:24.850Z,98404.00
2019-05-07T17:31:09.122Z,98399.00
2019-05-07T17:33:51.647Z,98389.00
2019-05-07T17:36:33.192Z,98389.00
2019-05-07T17:41:57.305Z,98397.00
2019-05-07T17:44:39.117Z,98395.00
2019-05-07T17:50:08.346Z,98401.00
2019-05-07T17:55:33.416Z,98396.00
2019-05-07T17:58:15.015Z,98433.00
2019-05-07T18:00:58.259Z,98392.00
2019-05-07T18:03:39.651Z,98391.00
2019-05-07T18:09:16.181Z,98428.00
2019-05-07T18:11:56.902Z,98369.00
2019-05-07T18:14:38.373Z,98363.00
2019-05-07T18:17:38.015Z,98385.00
2019-05-07T18:20:19.527Z,98372.00
2019-05-07T18:23:02.694Z,98411.00
2019-05-07T18:25:43.494Z,98384.00
2019-05-07T18:28:26.551Z,98382.00
2019-05-07T18:31:08.353Z,98404.00
2019-05-07T18:36:39.026Z,98373.00
2019-05-07T18:39:20.485Z,98414.00
2019-05-07T18:47:54.550Z,98369.00
2019-05-07T18:50:38.912Z,98384.00
2019-05-07T18:53:22.712Z,98367.00
2019-05-07T18:56:07.737Z,98415.00
2019-05-07T19:01:35.821Z,98377.00
2019-05-07T19:04:16.898Z,98340.00
2019-05-07T19:06:58.348Z,98356.00
2019-05-07T19:09:39.536Z,98382.00
2019-05-07T19:15:12.427Z,98402.00
2019-05-07T19:17:54.333Z,98391.00
2019-05-07T19:20:37.819Z,98403.00
2019-05-07T19:23:19.146Z,98398.00
2019-05-07T19:26:02.474Z,98389.00
2019-05-07T19:28:44.351Z,98299.00
2019-05-07T19:31:26.407Z,98403.00
2019-05-07T19:34:12.342Z,98402.00
2019-05-07T19:39:52.439Z,98420.00
2019-05-07T19:42:33.744Z,98421.00
2019-05-07T19:50:55.367Z,98447.00
2019-05-07T19:56:32.449Z,98384.00
2019-05-07T19:59:13.308Z,98323.00
2019-05-07T20:04:42.645Z,98374.00
2019-05-07T20:07:23.563Z,98376.00
2019-05-07T20:10:05.388Z,98369.00
2019-05-07T20:12:47.156Z,98364.00
2019-05-07T20:15:29.023Z,98368.00
2019-05-07T20:18:09.791Z,98340.00
2019-05-07T20:20:50.768Z,98399.00
2019-05-07T20:23:32.318Z,98365.00
2019-05-07T20:26:14.176Z,98393.00
2019-05-07T20:28:54.869Z,98356.00
2019-05-07T20:31:35.666Z,98354.00
2019-05-07T20:34:22.120Z,98388.00
2019-05-07T20:37:03.571Z,98298.00
2019-05-07T20:39:44.311Z,98368.00
2019-05-07T20:42:26.231Z,98355.00
2019-05-07T20:45:07.541Z,98349.00
2019-05-07T20:53:55.192Z,98354.00
2019-05-07T20:56:37.897Z,98375.00
2019-05-07T20:59:19.119Z,98290.00
2019-05-07T21:04:43.383Z,98353.00
2019-05-07T21:07:24.070Z,98382.00
2019-05-07T21:10:04.879Z,98382.00
2019-05-07T21:15:32.324Z,98343.00
2019-05-07T21:18:13.164Z,98341.00
2019-05-07T21:20:54.704Z,98336.00
2019-05-07T21:23:35.416Z,98310.00
2019-05-07T21:26:16.291Z,98335.00
2019-05-07T21:28:57.035Z,98373.00
2019-05-07T21:31:37.685Z,98331.00
2019-05-07T21:34:19.417Z,98333.00
2019-05-07T21:37:03.071Z,98337.00
2019-05-07T21:39:43.667Z,98334.00
2019-05-07T21:42:25.226Z,98340.00
2019-05-07T21:45:06.727Z,98333.00
2019-05-07T21:47:47.925Z,98275.00
2019-05-07T21:50:29.567Z,98333.00
2019-05-07T21:53:17.000Z,98320.00
2019-05-07T21:59:02.846Z,98351.00
2019-05-07T22:01:48.623Z,98354.00
2019-05-07T22:04:29.857Z,98353.00
2019-05-07T22:07:12.212Z,98344.00
2019-05-07T22:09:54.375Z,98355.00
2019-05-07T22:12:35.007Z,98315.00
2019-05-07T22:15:16.823Z,98305.00
2019-05-07T22:17:57.431Z,98294.00
2019-05-07T22:20:38.240Z,98336.00
2019-05-07T22:23:19.909Z,98223.00
2019-05-07T22:26:16.672Z,98294.00
2019-05-07T22:28:44.287Z,98274.00
2019-05-07T22:31:44.336Z,98285.00
2019-05-07T22:37:36.572Z,98280.00
2019-05-07T22:40:17.217Z,98286.00
2019-05-07T22:42:57.941Z,98282.00
2019-05-07T22:45:39.318Z,98275.00
2019-05-07T22:48:22.838Z,98268.00
2019-05-07T22:51:03.269Z,98203.00
2019-05-07T22:53:43.914Z,98257.00
2019-05-07T22:56:34.987Z,98253.00
2019-05-07T22:59:12.169Z,98264.00
2019-05-07T23:01:55.052Z,98247.00
2019-05-07T23:04:34.048Z,98248.00
2019-05-07T23:10:16.369Z,98249.00
2019-05-07T23:13:04.774Z,98236.00
2019-05-07T23:19:00.550Z,98227.00
2019-05-07T23:27:36.632Z,98262.00
2019-05-07T23:30:17.538Z,98261.00
2019-05-07T23:32:58.862Z,98220.00
2019-05-07T23:35:39.483Z,98205.00
2019-05-07T23:38:22.372Z,98223.00
2019-05-07T23:41:22.358Z,98201.00
2019-05-07T23:44:22.895Z,98196.00
2019-05-07T23:47:04.664Z,98202.00
2019-05-07T23:49:46.105Z,98220.00
2019-05-07T23:52:27.145Z,98214.00
2019-05-07T23:55:08.806Z,98176.00
2019-05-07T23:57:52.382Z,98169.00
